Time;durP1;ratioP1;P1;durP2;ratioP2;P2;SDS_P1;SDS_P2;PMS_P1;PMS_P2;Temp;Humidity;BMP_temperature;BMP_pressure;BME280_temperature;BME280_humidity;BME280_pressure;Samples;Min_cycle;Max_cycle;Signal;HPM_P1;HPM_P2
2021/12/14 00:02:00;;;;;;;;;;;7.90;99.90;;;;;;5115504;28;20058;-78
2021/12/14 00:04:32;;;;;;;0.60;0.60;;;7.90;99.90;;;;;;5115141;28;19923;-79
2021/12/14 00:07:05;;;;;;;0.50;0.50;;;8.00;99.90;;;;;;5115066;28;20494;-79
2021/12/14 00:09:35;;;;;;;0.68;0.68;;;7.90;99.90;;;;;;5115013;28;20082;-77
2021/12/14 00:15:04;;;;;;;1.60;0.82;;;7.90;99.90;;;;;;5114844;28;20118;-78
2021/12/14 00:17:48;;;;;;;0.50;0.50;;;7.90;99.90;;;;;;5114766;28;20106;-78
2021/12/14 00:20:20;;;;;;;0.50;0.50;;;7.90;99.90;;;;;;5114887;28;20104;-77
2021/12/14 00:25:43;;;;;;;0.80;0.80;;;7.90;99.90;;;;;;5113951;28;20047;-78
2021/12/14 00:28:22;;;;;;;1.38;1.27;;;7.90;99.90;;;;;;5114583;28;20035;-74
2021/12/14 00:30:49;;;;;;;1.48;0.73;;;7.90;99.90;;;;;;5114576;28;20035;-75
2021/12/14 00:33:19;;;;;;;1.50;1.30;;;7.90;99.90;;;;;;5114542;28;20119;-75
2021/12/14 00:35:46;;;;;;;1.65;1.10;;;7.90;99.90;;;;;;5114443;28;20035;-74
2021/12/14 00:38:14;;;;;;;0.57;0.57;;;7.90;99.90;;;;;;5114497;28;20054;-77
2021/12/14 00:40:45;;;;;;;0.50;0.50;;;7.90;99.90;;;;;;5114423;28;20053;-76
2021/12/14 00:43:11;;;;;;;0.47;0.47;;;7.90;99.90;;;;;;5114433;28;20107;-77
2021/12/14 00:45:39;;;;;;;3.63;1.20;;;7.90;99.90;;;;;;5114361;28;20425;-75
2021/12/14 00:48:07;;;;;;;0.55;0.55;;;7.90;99.90;;;;;;5113998;28;20051;-75
2021/12/14 00:50:37;;;;;;;0.70;0.70;;;7.90;99.90;;;;;;5114272;28;20039;-77
2021/12/14 00:53:03;;;;;;;1.20;0.77;;;7.90;99.90;;;;;;5114233;28;20063;-76
2021/12/14 00:55:36;;;;;;;0.50;0.50;;;7.90;99.90;;;;;;5114280;28;20435;-77
2021/12/14 00:58:04;;;;;;;0.73;0.73;;;7.90;99.90;;;;;;5114132;27;20505;-78
2021/12/14 01:00:38;;;;;;;0.90;0.90;;;7.90;99.90;;;;;;5114076;28;20148;-78
2021/12/14 01:03:04;;;;;;;0.50;0.50;;;7.90;99.90;;;;;;5114172;28;20035;-80
2021/12/14 01:05:35;;;;;;;0.90;0.90;;;7.90;99.90;;;;;;5114146;28;20413;-79
2021/12/14 01:08:03;;;;;;;1.45;0.77;;;7.90;99.90;;;;;;5114072;28;20039;-79
2021/12/14 01:10:39;;;;;;;0.65;0.65;;;7.90;99.90;;;;;;5114116;28;20066;-77
2021/12/14 01:13:09;;;;;;;0.82;0.82;;;7.90;99.90;;;;;;5113969;28;20032;-73
2021/12/14 01:16:00;;;;;;;0.60;0.60;;;7.90;99.90;;;;;;5114012;28;20126;-75
2021/12/14 01:21:40;;;;;;;0.82;0.82;;;7.90;99.90;;;;;;5114041;28;20048;-78
2021/12/14 01:24:19;;;;;;;0.75;0.75;;;7.90;99.90;;;;;;5113933;28;20445;-77
2021/12/14 01:26:45;;;;;;;1.52;1.02;;;7.90;99.90;;;;;;5113704;28;20048;-80
2021/12/14 01:29:14;;;;;;;1.40;1.30;;;7.90;99.90;;;;;;5114239;28;20071;-79
2021/12/14 01:31:42;;;;;;;1.08;0.88;;;7.80;99.90;;;;;;5113871;28;20122;-79
2021/12/14 01:34:12;;;;;;;1.67;1.25;;;7.90;99.90;;;;;;5113852;28;20165;-78
2021/12/14 01:36:41;;;;;;;0.82;0.82;;;7.90;99.90;;;;;;5113955;28;20040;-79
2021/12/14 01:41:57;;;;;;;2.55;0.82;;;7.90;99.90;;;;;;5117868;28;20051;-77
2021/12/14 01:44:25;;;;;;;0.50;0.50;;;7.90;99.90;;;;;;5117801;28;20096;-76
2021/12/14 01:47:15;;;;;;;0.50;0.50;;;7.90;99.90;;;;;;5117223;28;20079;-76
2021/12/14 01:49:41;;;;;;;0.70;0.70;;;7.80;99.90;;;;;;5107502;28;20070;-77
2021/12/14 01:52:16;;;;;;;0.95;0.77;;;7.90;99.90;;;;;;5117673;28;20487;-77
2021/12/14 01:54:49;;;;;;;0.82;0.82;;;7.90;99.90;;;;;;5117615;28;20039;-77
2021/12/14 01:57:18;;;;;;;0.52;0.52;;;7.80;99.90;;;;;;5117518;28;20039;-78
2021/12/14 01:59:46;;;;;;;0.73;0.73;;;7.80;99.90;;;;;;5117457;28;20084;-79
2021/12/14 02:02:24;;;;;;;0.88;0.65;;;7.80;99.90;;;;;;5117576;28;20035;-78
2021/12/14 02:04:53;;;;;;;1.00;1.00;;;7.80;99.90;;;;;;5117566;28;20050;-79
2021/12/14 02:07:19;;;;;;;0.60;0.60;;;7.80;99.90;;;;;;5117476;28;20044;-77
2021/12/14 02:09:50;;;;;;;1.05;1.05;;;7.80;99.90;;;;;;5117135;28;20082;-80
2021/12/14 02:12:23;;;;;;;0.50;0.50;;;7.80;99.90;;;;;;5117251;28;20058;-79
2021/12/14 02:14:49;;;;;;;0.80;0.80;;;7.80;99.90;;;;;;5117283;28;20403;-80
2021/12/14 02:17:18;;;;;;;0.57;0.57;;;7.80;99.90;;;;;;5117019;28;20127;-80
2021/12/14 02:19:45;;;;;;;0.60;0.60;;;7.80;99.90;;;;;;5116954;28;20505;-79
2021/12/14 02:22:11;;;;;;;;;;;7.90;99.90;;;;;;5119499;28;20035;-77
2021/12/14 02:24:41;;;;;;;0.80;0.80;;;7.80;99.90;;;;;;5117705;28;19915;-78
2021/12/14 02:27:07;;;;;;;1.77;1.65;;;7.80;99.90;;;;;;5118473;28;20475;-74
2021/12/14 02:29:38;;;;;;;0.90;0.82;;;7.80;99.90;;;;;;5118937;28;20043;-76
2021/12/14 02:32:11;;;;;;;0.60;0.60;;;7.80;99.90;;;;;;5118054;28;20032;-79
2021/12/14 02:34:51;;;;;;;1.00;1.00;;;7.80;99.90;;;;;;5117029;28;20039;-79
2021/12/14 02:37:21;;;;;;;1.05;1.02;;;7.80;99.90;;;;;;5116892;28;20364;-79
2021/12/14 02:39:59;;;;;;;1.55;1.35;;;7.80;99.90;;;;;;5116862;28;20051;-76
2021/12/14 02:42:29;;;;;;;0.93;0.88;;;7.80;99.90;;;;;;5116631;28;20047;-77
2021/12/14 02:44:58;;;;;;;0.63;0.63;;;7.80;99.90;;;;;;5116659;28;20039;-79
2021/12/14 02:47:24;;;;;;;0.93;0.93;;;7.80;99.90;;;;;;5116207;28;20051;-79
2021/12/14 02:49:50;;;;;;;2.67;1.52;;;7.80;99.90;;;;;;5114182;28;20048;-79
2021/12/14 02:52:27;;;;;;;1.30;0.98;;;7.80;99.90;;;;;;5116497;28;20367;-78
2021/12/14 02:54:56;;;;;;;2.28;1.63;;;7.90;99.90;;;;;;5116499;28;20032;-78
2021/12/14 02:57:25;;;;;;;0.82;0.82;;;7.80;99.90;;;;;;5116409;28;20040;-77
2021/12/14 02:59:53;;;;;;;1.10;0.98;;;7.80;99.90;;;;;;5116435;27;20122;-77
2021/12/14 03:02:28;;;;;;;2.97;2.35;;;7.80;99.90;;;;;;5116390;28;20036;-79
2021/12/14 03:04:58;;;;;;;0.98;0.98;;;7.80;99.90;;;;;;5116433;28;20040;-79
2021/12/14 03:07:29;;;;;;;1.08;0.98;;;7.80;99.90;;;;;;5116340;28;20035;-78
2021/12/14 03:10:06;;;;;;;3.00;1.92;;;7.80;99.90;;;;;;5116296;28;20040;-76
2021/12/14 03:12:39;;;;;;;3.10;1.95;;;7.80;99.90;;;;;;5116266;28;20050;-78
2021/12/14 03:15:15;;;;;;;2.35;0.73;;;7.80;99.90;;;;;;5116146;28;20092;-79
2021/12/14 03:17:45;;;;;;;0.95;0.95;;;7.80;99.90;;;;;;5115054;28;20043;-79
2021/12/14 03:20:15;;;;;;;0.88;0.88;;;7.80;99.90;;;;;;5116183;28;20052;-77
2021/12/14 03:23:02;;;;;;;1.63;1.17;;;7.80;99.90;;;;;;5116084;27;20058;-78
2021/12/14 03:25:30;;;;;;;1.60;1.17;;;7.80;99.90;;;;;;5115980;28;20045;-77
2021/12/14 03:27:57;;;;;;;0.82;0.82;;;7.80;99.90;;;;;;5115923;28;20119;-77
2021/12/14 03:30:31;;;;;;;0.60;0.60;;;7.80;99.90;;;;;;5115886;28;20361;-77
2021/12/14 03:33:06;;;;;;;0.73;0.73;;;7.80;99.90;;;;;;5115920;28;20073;-78
2021/12/14 03:35:48;;;;;;;1.25;1.17;;;7.80;99.90;;;;;;5115926;28;20036;-78
2021/12/14 03:38:24;;;;;;;6.05;3.22;;;7.80;99.90;;;;;;5115452;28;20092;-78
2021/12/14 03:41:00;;;;;;;0.60;0.60;;;7.90;99.90;;;;;;5115669;27;20106;-76
2021/12/14 03:43:27;;;;;;;0.90;0.90;;;7.80;99.90;;;;;;5114472;28;20075;-80
2021/12/14 03:45:53;;;;;;;9.93;1.20;;;7.90;99.90;;;;;;5115385;28;20069;-76
2021/12/14 03:48:23;;;;;;;1.07;0.90;;;7.80;99.90;;;;;;5115519;28;20123;-79
2021/12/14 03:50:49;;;;;;;1.90;1.75;;;7.80;99.90;;;;;;5114445;28;20466;-79
2021/12/14 03:53:18;;;;;;;0.88;0.88;;;7.80;99.90;;;;;;5115384;28;20475;-78
2021/12/14 03:55:49;;;;;;;1.20;1.10;;;7.80;99.90;;;;;;5115191;27;20047;-80
2021/12/14 03:58:19;;;;;;;6.13;1.20;;;7.80;99.90;;;;;;5115410;28;20031;-78
2021/12/14 04:00:55;;;;;;;1.30;1.20;;;7.70;99.90;;;;;;5115262;28;20050;-80
2021/12/14 04:03:23;;;;;;;1.80;1.23;;;7.80;99.90;;;;;;5115233;28;20046;-79
2021/12/14 04:05:49;;;;;;;0.73;0.73;;;7.70;99.90;;;;;;5115248;28;20043;-76
2021/12/14 04:08:16;;;;;;;1.03;0.97;;;7.70;99.90;;;;;;5115048;28;20046;-78
2021/12/14 04:10:44;;;;;;;1.38;1.25;;;7.80;99.90;;;;;;5115086;28;20036;-77
2021/12/14 04:13:16;;;;;;;0.95;0.95;;;7.70;99.90;;;;;;5114764;28;20043;-78
2021/12/14 04:15:41;;;;;;;3.05;1.85;;;7.70;99.90;;;;;;5114767;28;20440;-79
2021/12/14 04:18:07;;;;;;;0.80;0.80;;;;;;;;;;5115072;28;20040;-78
2021/12/14 04:20:38;;;;;;;0.80;0.80;;;7.70;99.90;;;;;;5114996;28;20036;-79
2021/12/14 04:23:12;;;;;;;2.33;2.13;;;7.70;99.90;;;;;;5114935;28;20270;-76
2021/12/14 04:25:40;;;;;;;1.33;1.23;;;7.70;99.90;;;;;;5114737;28;20097;-78
2021/12/14 04:28:09;;;;;;;0.73;0.60;;;7.80;99.90;;;;;;5114527;28;20035;-78
2021/12/14 04:30:36;;;;;;;0.85;0.85;;;7.80;99.90;;;;;;5114758;28;20062;-79
2021/12/14 04:33:06;;;;;;;0.68;0.68;;;7.70;99.90;;;;;;5114804;28;20394;-77
2021/12/14 04:35:37;;;;;;;2.97;2.70;;;7.80;99.90;;;;;;5113536;28;20062;-77
2021/12/14 04:38:11;;;;;;;1.15;0.95;;;7.70;99.90;;;;;;5114695;28;20044;-79
2021/12/14 04:51:57;;;;;;;3.50;1.40;;;7.70;99.90;;;;;;5113501;28;20032;-77
2021/12/14 04:51:58;;;;;;;0.70;0.70;;;7.70;99.90;;;;;;5114468;28;20122;-77
2021/12/14 04:54:32;;;;;;;1.80;1.35;;;7.60;99.90;;;;;;5114426;28;20040;-78
2021/12/14 04:56:58;;;;;;;1.75;1.65;;;7.60;99.90;;;;;;5114088;28;20118;-79
2021/12/14 04:59:28;;;;;;;2.20;1.42;;;7.60;99.90;;;;;;5114351;28;20046;-77
2021/12/14 05:02:00;;;;;;;0.77;0.77;;;7.60;99.90;;;;;;5114280;28;20523;-78
2021/12/14 05:04:26;;;;;;;1.05;0.95;;;7.50;99.90;;;;;;5114382;28;20054;-77
2021/12/14 05:06:57;;;;;;;0.77;0.77;;;7.50;99.90;;;;;;5113079;28;20054;-78
2021/12/14 05:09:29;;;;;;;1.00;0.98;;;7.50;99.90;;;;;;5114198;28;20417;-78
2021/12/14 05:12:06;;;;;;;1.35;1.25;;;7.50;99.90;;;;;;5113551;28;20039;-79
2021/12/14 05:14:35;;;;;;;0.75;0.75;;;7.40;99.90;;;;;;5113794;28;20145;-79
2021/12/14 05:17:06;;;;;;;1.38;1.25;;;7.40;99.90;;;;;;5114165;28;20071;-77
2021/12/14 05:19:36;;;;;;;2.05;1.23;;;7.40;99.90;;;;;;5114151;28;20100;-78
2021/12/14 05:22:11;;;;;;;1.15;1.13;;;7.40;99.90;;;;;;5113880;28;20043;-77
2021/12/14 05:24:39;;;;;;;1.60;1.45;;;7.40;99.90;;;;;;5114100;28;20039;-79
2021/12/14 05:27:08;;;;;;;5.88;2.40;;;7.40;99.90;;;;;;5113820;28;20052;-77
2021/12/14 05:29:35;;;;;;;3.20;1.67;;;7.40;99.90;;;;;;5113970;28;20047;-79
2021/12/14 05:32:03;;;;;;;1.00;0.95;;;7.40;99.90;;;;;;5112842;28;20040;-79
2021/12/14 05:34:30;;;;;;;0.75;0.75;;;7.40;99.90;;;;;;5113943;28;20039;-76
2021/12/14 05:36:56;;;;;;;;;;;7.40;99.90;;;;;;5114378;28;20494;-78
2021/12/14 05:40:16;;;;;;;2.03;1.88;;;7.40;99.90;;;;;;5113910;28;19919;-78
2021/12/14 05:44:44;;;;;;;0.85;0.82;;;7.50;99.90;;;;;;5113607;28;20050;-78
2021/12/14 05:47:13;;;;;;;0.80;0.77;;;7.50;99.90;;;;;;5113491;28;20546;-77
2021/12/14 05:49:42;;;;;;;2.00;1.70;;;7.50;99.90;;;;;;5113849;28;20050;-78
2021/12/14 05:52:20;;;;;;;0.60;0.60;;;7.50;99.90;;;;;;5113883;28;20046;-79
2021/12/14 05:54:47;;;;;;;1.25;1.15;;;7.50;99.90;;;;;;5113926;28;20043;-78
2021/12/14 05:57:17;;;;;;;0.80;0.80;;;7.50;99.90;;;;;;5113819;28;20040;-77
2021/12/14 05:59:44;;;;;;;1.23;0.80;;;7.50;99.90;;;;;;5113414;28;20039;-79
2021/12/14 06:02:10;;;;;;;0.75;0.75;;;7.50;99.90;;;;;;5113714;28;20082;-79
2021/12/14 06:04:40;;;;;;;1.15;1.05;;;7.60;99.90;;;;;;5113601;28;20369;-83
2021/12/14 06:07:06;;;;;;;0.80;0.80;;;7.60;99.90;;;;;;5113660;28;20032;-79
2021/12/14 06:09:36;;;;;;;1.30;1.20;;;7.60;99.90;;;;;;5113618;28;20044;-78
2021/12/14 06:12:12;;;;;;;1.80;1.45;;;7.60;99.90;;;;;;5113620;28;20050;-77
2021/12/14 06:14:50;;;;;;;2.28;1.45;;;7.60;99.90;;;;;;5113734;28;20062;-76
2021/12/14 06:17:19;;;;;;;1.55;1.45;;;7.60;99.90;;;;;;5113653;28;20399;-79
2021/12/14 06:19:52;;;;;;;5.78;1.95;;;7.60;99.90;;;;;;5113643;28;20113;-79
2021/12/14 06:22:20;;;;;;;1.35;1.25;;;7.60;99.90;;;;;;5113627;28;20046;-77
2021/12/14 06:24:56;;;;;;;1.45;1.15;;;7.60;99.90;;;;;;5114494;28;20048;-76
2021/12/14 06:27:24;;;;;;;1.20;1.08;;;7.60;99.90;;;;;;5117205;28;20107;-77
2021/12/14 06:29:56;;;;;;;1.63;1.52;;;7.60;99.90;;;;;;5115883;28;20048;-80
2021/12/14 06:32:32;;;;;;;2.33;2.15;;;7.60;99.90;;;;;;5117065;28;20039;-78
2021/12/14 06:35:19;;;;;;;1.58;1.48;;;7.60;99.90;;;;;;5117097;28;20112;-78
2021/12/14 06:40:43;;;;;;;0.70;0.70;;;7.60;99.90;;;;;;5116972;28;20081;-77
2021/12/14 06:43:17;;;;;;;0.60;0.60;;;7.60;99.90;;;;;;5116951;28;20039;-76
2021/12/14 06:45:46;;;;;;;1.80;1.70;;;7.60;99.90;;;;;;5117285;28;20039;-77
2021/12/14 06:48:20;;;;;;;0.88;0.70;;;7.60;99.90;;;;;;5116642;28;20471;-77
2021/12/14 06:51:01;;;;;;;3.95;1.85;;;7.60;99.90;;;;;;5116732;28;20040;-78
2021/12/14 06:53:27;;;;;;;7.32;3.25;;;7.60;99.90;;;;;;5116676;28;20111;-80
2021/12/14 06:55:55;;;;;;;1.48;1.38;;;7.60;99.90;;;;;;5116681;28;20032;-76
2021/12/14 06:58:28;;;;;;;1.05;0.85;;;7.60;99.90;;;;;;5116222;27;20078;-79
2021/12/14 07:00:59;;;;;;;1.70;1.10;;;7.60;99.90;;;;;;5116483;28;20433;-78
2021/12/14 07:03:39;;;;;;;1.17;1.08;;;7.60;99.90;;;;;;5116230;28;20379;-78
2021/12/14 07:06:06;;;;;;;2.88;0.95;;;7.60;99.90;;;;;;5116458;27;20039;-79
2021/12/14 07:08:32;;;;;;;1.50;1.40;;;7.60;99.90;;;;;;5116275;28;20048;-77
2021/12/14 07:10:58;;;;;;;1.27;1.17;;;7.60;99.90;;;;;;5116329;28;20042;-78
2021/12/14 07:13:35;;;;;;;1.25;1.15;;;7.60;99.90;;;;;;5116247;28;20031;-77
2021/12/14 07:16:18;;;;;;;1.98;0.98;;;7.60;99.90;;;;;;5116260;28;20111;-78
2021/12/14 07:18:44;;;;;;;0.50;0.50;;;7.60;99.90;;;;;;5116207;28;20051;-76
2021/12/14 07:21:10;;;;;;;2.25;2.05;;;7.60;99.90;;;;;;5116105;28;20039;-78
2021/12/14 07:23:37;;;;;;;1.55;1.45;;;7.60;99.90;;;;;;5116010;28;20067;-79
2021/12/14 07:26:11;;;;;;;1.65;1.52;;;7.60;99.90;;;;;;5115542;28;20479;-79
2021/12/14 07:28:45;;;;;;;0.70;0.70;;;7.60;99.90;;;;;;5115867;28;20043;-78
2021/12/14 07:31:24;;;;;;;0.80;0.80;;;7.60;99.90;;;;;;5115694;28;20483;-79
2021/12/14 07:33:58;;;;;;;1.20;1.10;;;7.60;99.90;;;;;;5116156;28;20051;-79
2021/12/14 07:36:30;;;;;;;1.38;1.20;;;7.60;99.90;;;;;;5115374;28;20107;-78
2021/12/14 07:39:03;;;;;;;1.65;1.38;;;7.60;99.90;;;;;;5115692;28;20078;-79
2021/12/14 07:41:30;;;;;;;3.33;1.90;;;7.60;99.90;;;;;;5115765;28;20046;-77
2021/12/14 07:44:05;;;;;;;0.70;0.70;;;7.60;99.90;;;;;;5115657;28;20043;-76
2021/12/14 07:46:45;;;;;;;1.38;0.73;;;7.60;99.90;;;;;;5115322;28;20054;-77
2021/12/14 07:49:33;;;;;;;1.08;1.02;;;7.60;99.90;;;;;;5115536;28;20170;-79
2021/12/14 07:52:19;;;;;;;3.13;1.80;;;7.70;99.90;;;;;;5115321;28;20459;-78
2021/12/14 07:54:51;;;;;;;2.83;1.58;;;7.70;99.90;;;;;;5114505;28;20071;-78
2021/12/14 07:57:25;;;;;;;4.78;2.83;;;7.70;99.90;;;;;;5115239;28;20498;-80
2021/12/14 07:59:58;;;;;;;1.85;1.60;;;7.70;99.90;;;;;;5115388;27;20130;-80
2021/12/14 08:02:32;;;;;;;2.35;1.90;;;7.70;99.90;;;;;;5115335;28;20068;-81
2021/12/14 08:05:14;;;;;;;3.13;2.15;;;7.70;99.90;;;;;;5115201;28;20119;-75
2021/12/14 08:07:43;;;;;;;2.30;2.10;;;7.70;99.90;;;;;;5115068;28;20118;-76
2021/12/14 08:10:18;;;;;;;0.95;0.80;;;7.70;99.90;;;;;;5115065;28;20071;-76
2021/12/14 08:12:51;;;;;;;1.08;1.08;;;7.70;99.90;;;;;;5114790;28;20505;-75
2021/12/14 08:15:31;;;;;;;1.48;1.25;;;7.80;99.90;;;;;;5115049;28;20038;-76
2021/12/14 08:18:14;;;;;;;1.67;1.20;;;7.80;99.90;;;;;;5114908;28;20039;-80
2021/12/14 08:20:48;;;;;;;1.40;1.30;;;7.80;99.90;;;;;;5115039;28;20472;-80
2021/12/14 08:23:16;;;;;;;0.88;0.88;;;7.80;99.90;;;;;;5114931;27;20042;-77
2021/12/14 08:25:42;;;;;;;1.77;1.63;;;7.80;99.90;;;;;;5114815;28;20077;-78
2021/12/14 08:28:10;;;;;;;2.17;2.08;;;7.90;99.90;;;;;;5114880;28;20031;-78
2021/12/14 08:30:39;;;;;;;4.47;3.05;;;7.90;99.90;;;;;;5114463;28;20040;-77
2021/12/14 08:33:15;;;;;;;1.65;1.55;;;7.90;99.90;;;;;;5114879;28;20093;-80
2021/12/14 08:35:42;;;;;;;4.43;2.97;;;7.90;99.90;;;;;;5113864;28;20039;-84
2021/12/14 08:38:08;;;;;;;;;;;7.90;99.90;;;;;;5111825;28;20044;-83
2021/12/14 08:40:39;;;;;;;2.17;1.95;;;7.90;99.90;;;;;;5113103;28;19937;-79
2021/12/14 08:43:20;;;;;;;1.58;1.48;;;8.00;99.90;;;;;;5113304;28;20042;-82
2021/12/14 08:45:55;;;;;;;1.75;1.38;;;8.00;99.90;;;;;;5114377;28;20039;-81
2021/12/14 08:48:26;;;;;;;0.93;0.93;;;8.00;99.90;;;;;;5113862;28;20055;-79
2021/12/14 08:51:01;;;;;;;1.90;1.63;;;8.00;99.90;;;;;;5114438;28;20391;-81
2021/12/14 08:53:33;;;;;;;1.25;1.15;;;8.00;99.90;;;;;;5114466;28;20386;-79
2021/12/14 08:56:04;;;;;;;1.33;1.23;;;8.00;99.90;;;;;;5114251;28;20066;-79
2021/12/14 08:58:30;;;;;;;2.65;1.48;;;8.00;99.90;;;;;;5114403;28;20110;-82
2021/12/14 09:01:01;;;;;;;4.07;2.38;;;8.00;99.90;;;;;;5112998;28;20491;-80
2021/12/14 09:03:32;;;;;;;2.80;1.63;;;8.00;99.90;;;;;;5114358;28;20035;-82
2021/12/14 09:06:04;;;;;;;1.65;1.55;;;8.00;99.90;;;;;;5114345;28;20036;-78
2021/12/14 09:08:30;;;;;;;1.75;1.50;;;8.00;99.90;;;;;;5112650;28;20138;-79
2021/12/14 09:10:58;;;;;;;1.23;1.13;;;8.00;99.90;;;;;;5112767;28;20040;-78
2021/12/14 09:13:26;;;;;;;2.83;2.35;;;8.00;99.90;;;;;;5114133;28;20036;-80
2021/12/14 09:16:05;;;;;;;3.33;2.67;;;8.00;99.90;;;;;;5112633;28;20039;-80
2021/12/14 09:18:38;;;;;;;1.83;1.48;;;8.00;99.90;;;;;;5114141;28;20071;-80
2021/12/14 09:21:11;;;;;;;1.48;1.25;;;8.00;99.90;;;;;;5114090;28;20078;-80
2021/12/14 09:23:41;;;;;;;1.48;1.35;;;8.10;99.90;;;;;;5114131;28;20050;-80
2021/12/14 09:26:11;;;;;;;1.45;1.35;;;8.10;99.90;;;;;;5114728;28;20097;-80
2021/12/14 09:28:36;;;;;;;1.45;1.25;;;8.10;99.90;;;;;;5112959;28;20104;-78
2021/12/14 09:31:08;;;;;;;2.13;1.92;;;8.10;99.90;;;;;;5114142;28;20467;-77
2021/12/14 09:33:36;;;;;;;3.92;2.58;;;8.10;99.90;;;;;;5114034;28;20040;-78
2021/12/14 09:36:08;;;;;;;1.40;1.30;;;8.10;99.90;;;;;;5113975;28;20110;-78
2021/12/14 09:38:40;;;;;;;0.70;0.70;;;8.10;99.90;;;;;;5113973;28;20036;-82
2021/12/14 09:41:08;;;;;;;1.48;1.38;;;8.10;99.90;;;;;;5113120;28;20110;-77
2021/12/14 09:43:35;;;;;;;2.45;1.95;;;8.10;99.90;;;;;;5112787;28;20061;-78
2021/12/14 09:46:01;;;;;;;1.30;1.20;;;8.10;99.90;;;;;;5111763;28;20056;-78
2021/12/14 09:48:34;;;;;;;1.85;1.33;;;8.20;99.90;;;;;;5113708;28;20075;-77
2021/12/14 09:51:07;;;;;;;1.25;1.15;;;8.20;99.90;;;;;;5113480;28;20050;-78
2021/12/14 09:53:36;;;;;;;2.55;2.35;;;8.20;99.90;;;;;;5111676;28;20050;-79
2021/12/14 09:56:03;;;;;;;1.25;1.15;;;8.20;99.90;;;;;;5112363;28;20032;-76
2021/12/14 09:58:37;;;;;;;3.63;2.05;;;8.20;99.90;;;;;;5115058;28;20035;-80
2021/12/14 10:01:12;;;;;;;0.98;0.88;;;8.20;99.90;;;;;;5117265;28;20036;-78
2021/12/14 10:03:39;;;;;;;2.60;2.25;;;8.30;99.90;;;;;;5116076;28;20121;-78
2021/12/14 10:06:12;;;;;;;4.80;2.15;;;8.30;99.90;;;;;;5117546;28;20502;-79
2021/12/14 10:08:45;;;;;;;2.63;2.42;;;8.30;99.90;;;;;;5116049;28;20040;-78
2021/12/14 10:11:35;;;;;;;1.30;1.20;;;8.30;99.90;;;;;;5116692;28;20494;-79
2021/12/14 10:14:02;;;;;;;0.88;0.88;;;8.30;99.90;;;;;;5115827;28;20090;-78
2021/12/14 10:16:28;;;;;;;3.20;1.65;;;8.30;99.90;;;;;;5117095;28;20391;-76
2021/12/14 10:19:02;;;;;;;1.58;1.48;;;8.40;99.90;;;;;;5115675;28;20047;-76
2021/12/14 10:21:36;;;;;;;6.60;1.35;;;8.40;99.90;;;;;;5115600;28;20035;-77
2021/12/14 10:24:04;;;;;;;0.70;0.70;;;8.40;99.90;;;;;;5098824;28;20061;-79
2021/12/14 10:26:32;;;;;;;1.38;1.25;;;8.40;99.90;;;;;;5115510;28;20040;-79
2021/12/14 10:29:00;;;;;;;2.40;1.23;;;8.50;99.90;;;;;;5116916;28;20119;-80
2021/12/14 10:31:32;;;;;;;1.33;1.23;;;8.50;99.90;;;;;;5115016;28;20043;-79
2021/12/14 10:34:01;;;;;;;1.13;1.02;;;8.40;99.90;;;;;;5115357;27;20035;-77
2021/12/14 10:36:34;;;;;;;3.47;1.67;;;8.50;99.90;;;;;;5102324;28;20047;-78
2021/12/14 10:39:20;;;;;;;5.95;3.13;;;8.50;99.90;;;;;;5112461;28;20043;-79
2021/12/14 10:44:40;;;;;;;2.55;2.03;;;8.40;99.90;;;;;;5116044;28;20043;-78
2021/12/14 10:47:09;;;;;;;3.03;1.85;;;8.50;99.90;;;;;;5116208;28;20044;-77
2021/12/14 10:49:35;;;;;;;4.40;2.70;;;8.60;99.90;;;;;;5115087;28;20040;-77
2021/12/14 10:52:06;;;;;;;1.58;1.48;;;8.50;99.90;;;;;;5114369;28;20572;-77
2021/12/14 10:54:32;;;;;;;5.97;2.58;;;8.50;99.90;;;;;;5098280;28;20107;-77
2021/12/14 10:57:03;;;;;;;1.23;1.20;;;8.50;99.90;;;;;;5098430;28;20046;-77
2021/12/14 10:59:34;;;;;;;1.85;1.48;;;8.50;99.90;;;;;;5117653;28;20039;-78
2021/12/14 11:02:00;;;;;;;1.63;1.52;;;8.50;99.90;;;;;;5116110;28;20036;-78
2021/12/14 11:04:40;;;;;;;2.53;2.33;;;8.50;99.90;;;;;;5116726;28;20039;-77
2021/12/14 11:07:13;;;;;;;6.32;2.50;;;8.50;99.90;;;;;;5115100;28;20125;-77
2021/12/14 11:09:45;;;;;;;1.25;1.15;;;8.60;99.90;;;;;;5114495;28;20039;-80
2021/12/14 11:12:34;;;;;;;1.60;1.50;;;8.50;99.90;;;;;;5114541;28;20036;-78
2021/12/14 11:15:07;;;;;;;1.88;1.77;;;8.60;99.90;;;;;;5114683;28;20040;-79
2021/12/14 11:20:26;;;;;;;2.17;1.95;;;8.60;99.90;;;;;;5114541;28;20444;-79
2021/12/14 11:23:00;;;;;;;1.35;1.25;;;8.60;99.90;;;;;;5114715;28;20404;-80
2021/12/14 11:25:35;;;;;;;1.27;1.20;;;8.60;99.90;;;;;;5113552;28;20114;-79
2021/12/14 11:28:07;;;;;;;2.90;2.35;;;8.70;99.90;;;;;;5116083;28;20040;-79
2021/12/14 11:31:02;;;;;;;2.55;2.05;;;8.70;99.90;;;;;;5115957;28;20043;-77
2021/12/14 11:33:36;;;;;;;0.90;0.90;;;8.60;99.90;;;;;;5116501;28;20044;-76
2021/12/14 11:36:08;;;;;;;5.30;3.28;;;8.70;99.90;;;;;;5115847;28;20043;-78
2021/12/14 11:38:33;;;;;;;1.15;1.05;;;8.70;99.90;;;;;;5115847;28;20035;-77
2021/12/14 11:41:17;;;;;;;1.58;1.27;;;8.70;99.90;;;;;;5115641;28;20058;-79
2021/12/14 11:43:51;;;;;;;1.58;1.48;;;8.70;99.90;;;;;;5115810;28;20038;-79
2021/12/14 11:46:17;;;;;;;3.03;2.20;;;8.70;99.90;;;;;;5115450;28;20047;-77
2021/12/14 11:48:43;;;;;;;0.77;0.77;;;8.70;99.90;;;;;;5115454;28;20520;-79
2021/12/14 11:51:10;;;;;;;2.22;1.48;;;8.60;99.90;;;;;;5115574;28;20061;-80
2021/12/14 11:53:37;;;;;;;3.25;3.03;;;8.70;99.90;;;;;;5115434;28;20532;-80
2021/12/14 11:56:09;;;;;;;;;;;8.60;99.90;;;;;;5115847;28;20027;-79
2021/12/14 11:58:44;;;;;;;1.50;1.40;;;8.70;99.90;;;;;;5113767;28;20484;-79
2021/12/14 12:01:25;;;;;;;1.40;1.30;;;8.60;99.90;;;;;;5114968;28;20039;-78
2021/12/14 12:04:04;;;;;;;1.55;1.45;;;8.60;99.90;;;;;;5115197;27;20039;-78
2021/12/14 12:09:28;;;;;;;8.00;2.28;;;8.70;99.90;;;;;;5114706;28;20035;-80
2021/12/14 12:09:46;;;;;;;8.77;1.75;;;8.70;99.90;;;;;;5112743;28;20127;-77
2021/12/14 12:12:24;;;;;;;2.00;1.88;;;8.60;99.90;;;;;;5114806;28;20425;-79
2021/12/14 12:14:52;;;;;;;2.28;1.65;;;8.60;99.90;;;;;;5114638;28;20075;-80
2021/12/14 12:17:30;;;;;;;2.20;1.85;;;8.60;99.90;;;;;;5114693;28;20039;-78
2021/12/14 12:20:16;;;;;;;2.83;1.75;;;8.70;99.90;;;;;;5147905;27;20051;-77
2021/12/14 12:22:47;;;;;;;1.60;1.50;;;8.70;99.90;;;;;;5114588;28;20491;-76
2021/12/14 12:25:21;;;;;;;0.95;0.90;;;8.70;99.90;;;;;;5114583;28;20040;-76
2021/12/14 12:27:49;;;;;;;1.17;1.08;;;8.70;99.90;;;;;;5114642;28;20035;-77
2021/12/14 12:30:40;;;;;;;2.85;2.47;;;8.70;99.90;;;;;;5114337;28;20042;-77
2021/12/14 12:33:18;;;;;;;1.92;1.75;;;8.70;99.90;;;;;;5114784;28;20071;-77
2021/12/14 12:36:09;;;;;;;2.05;1.25;;;8.70;99.90;;;;;;5114423;28;20122;-78
2021/12/14 12:38:53;;;;;;;2.58;2.05;;;8.70;99.90;;;;;;5113536;28;20046;-79
2021/12/14 12:41:25;;;;;;;2.03;1.52;;;8.60;99.90;;;;;;5114600;28;20160;-78
2021/12/14 12:44:21;;;;;;;0.80;0.80;;;8.70;99.90;;;;;;5112851;28;20048;-76
2021/12/14 12:47:10;;;;;;;3.92;2.22;;;8.70;99.90;;;;;;5138737;27;20510;-78
2021/12/14 12:49:51;;;;;;;1.40;1.30;;;8.70;99.90;;;;;;5114570;28;20070;-78
2021/12/14 12:52:30;;;;;;;2.83;1.85;;;8.70;99.90;;;;;;5114001;28;20051;-77
2021/12/14 12:55:10;;;;;;;1.92;1.67;;;8.60;99.90;;;;;;5114359;28;20040;-79
2021/12/14 12:57:54;;;;;;;0.70;0.70;;;8.70;99.90;;;;;;5095557;28;20037;-78
2021/12/14 13:00:27;;;;;;;1.80;1.65;;;8.70;99.90;;;;;;5114392;28;20044;-78
2021/12/14 13:03:30;;;;;;;0.70;0.70;;;8.70;99.90;;;;;;5114366;28;20479;-77
2021/12/14 13:05:58;;;;;;;4.53;1.60;;;8.70;99.90;;;;;;5113890;28;20169;-79
2021/12/14 13:08:44;;;;;;;0.63;0.63;;;8.70;99.90;;;;;;5112525;28;20043;-78
2021/12/14 13:11:23;;;;;;;1.88;0.77;;;8.70;99.90;;;;;;5114269;28;20383;-77
2021/12/14 13:14:13;;;;;;;1.27;1.15;;;8.70;99.90;;;;;;5147263;27;20043;-78
2021/12/14 13:16:43;;;;;;;0.85;0.85;;;8.70;99.90;;;;;;5105798;28;20039;-77
2021/12/14 13:19:23;;;;;;;0.80;0.80;;;8.70;99.90;;;;;;5114117;28;20050;-76
2021/12/14 13:21:57;;;;;;;1.25;0.90;;;8.70;99.90;;;;;;5113877;28;20505;-77
2021/12/14 13:24:35;;;;;;;0.70;0.70;;;8.70;99.90;;;;;;5113734;28;20051;-78
2021/12/14 13:27:09;;;;;;;0.68;0.68;;;8.70;99.90;;;;;;5113385;28;20055;-79
2021/12/14 13:29:36;;;;;;;1.08;0.98;;;8.70;99.90;;;;;;5113691;28;20040;-80
2021/12/14 13:32:04;;;;;;;1.30;0.70;;;8.70;99.90;;;;;;5113714;28;20043;-79
2021/12/14 13:34:44;;;;;;;1.67;1.38;;;8.70;99.90;;;;;;5117415;28;20036;-79
2021/12/14 13:37:14;;;;;;;1.13;1.00;;;8.70;99.90;;;;;;5118154;28;20036;-80
2021/12/14 13:39:40;;;;;;;1.55;1.45;;;8.70;99.90;;;;;;5118116;28;20074;-81
2021/12/14 13:42:12;;;;;;;1.02;0.93;;;8.70;99.90;;;;;;5116875;28;20042;-80
2021/12/14 13:44:43;;;;;;;0.60;0.60;;;8.70;99.90;;;;;;5117953;28;20395;-79
2021/12/14 13:47:11;;;;;;;0.68;0.68;;;8.70;99.90;;;;;;5115774;28;20052;-83
2021/12/14 13:49:40;;;;;;;0.73;0.73;;;8.80;99.90;;;;;;5117520;28;20036;-83
2021/12/14 13:52:08;;;;;;;0.80;0.80;;;8.80;99.90;;;;;;5116255;28;20031;-82
2021/12/14 13:55:22;;;;;;;2.47;0.82;;;8.80;99.90;;;;;;5117732;28;20039;-83
2021/12/14 13:58:05;;;;;;;0.60;0.60;;;8.80;99.90;;;;;;5099380;28;20039;-83